AQQ10 IFIS: Internet Flight Information System
logo dgac
Miércoles 27 de Octubre del 2021

Metar

Buscar por aerodromo o helipuerto
Ingrese nombre de aeródromo, localidad o designador OACI:


SPECI del 27-10-2021 a las 06:28 UTC
Para mayor información visite www.meteochile.cl
SPECI SCJO 270628Z AUTO 00000KT 1200 BR VV001 05/05 Q1020
Visibilidad: 1200 metros
Neblina
Visib_vertical: Cielo oscurecido, : 100 pies de visibilidad vertical
Temperatura: 5 °C
Rocío: 5 °C
Humedad_relativa: 100%
Presión: 1020 hPa
SPECI del 27-10-2021 a las 06:26 UTC
Para mayor información visite www.meteochile.cl
SPECI SCJO 270626Z AUTO 00000KT 1900 BR VV001 05/05 Q1020
Visibilidad: 1900 metros
Neblina
Visib_vertical: Cielo oscurecido, : 100 pies de visibilidad vertical
Temperatura: 5 °C
Rocío: 5 °C
Humedad_relativa: 100%
Presión: 1020 hPa
SPECI del 27-10-2021 a las 06:25 UTC
Para mayor información visite www.meteochile.cl
SPECI SCJO 270625Z AUTO 00000KT 3700 BR VV001 05/05 Q1020
Visibilidad: 3700 metros
Neblina
Visib_vertical: Cielo oscurecido, : 100 pies de visibilidad vertical
Temperatura: 5 °C
Rocío: 5 °C
Humedad_relativa: 100%
Presión: 1020 hPa
SPECI del 27-10-2021 a las 06:14 UTC
Para mayor información visite www.meteochile.cl
SPECI SCJO 270614Z AUTO 00000KT 1000 BR VV001 05/05 Q1020
Visibilidad: 1000 metros
Neblina
Visib_vertical: Cielo oscurecido, : 100 pies de visibilidad vertical
Temperatura: 5 °C
Rocío: 5 °C
Humedad_relativa: 100%
Presión: 1020 hPa
SPECI del 27-10-2021 a las 06:05 UTC
Para mayor información visite www.meteochile.cl
SPECI SCJO 270605Z AUTO 00000KT 0900 FG VV002 05/05 Q1020
Visibilidad: 900 metros
Niebla
Visib_vertical: Cielo oscurecido, : 200 pies de visibilidad vertical
Temperatura: 5 °C
Rocío: 5 °C
Humedad_relativa: 100%
Presión: 1020 hPa
SPECI del 27-10-2021 a las 06:01 UTC
Para mayor información visite www.meteochile.cl
SPECI SCJO 270601Z AUTO 00000KT 0650 BR FEW003/// 05/05 Q1021
Visibilidad: 650 metros
Neblina
Nubes: Escasa nubosidad a 300 pies sobre el nivel del aeródromo, Tipo de nubes no disponible
Temperatura: 5 °C
Rocío: 5 °C
Humedad_relativa: 100%
Presión: 1021 hPa
METAR del 27-10-2021 a las 06:00 UTC
Para mayor información visite www.meteochile.cl
METAR SCIP 270600Z 29005KT 9999 SCT020 18/15 Q1023 NOSIG
Viento: dirección 290 grados, velocidad 5 nudos
Visibilidad: 10 km o más
Nubes: Nubosidad parcial a 2000 pies sobre el nivel del aeródromo
Temperatura: 18 °C
Rocío: 15 °C
Humedad_relativa: 83%
Presión: 1023 hPa
No se esperan cambios significativos en las próximas 2 horas
METAR del 27-10-2021 a las 06:00 UTC
Para mayor información visite www.meteochile.cl
METAR SCFA 270600Z VRB04KT 9999 BKN018 15/11 Q1017 NOSIG
Viento: dirección variable, velocidad 4 nudos
Visibilidad: 10 km o más
Nubes: Nublado a 1800 pies sobre el nivel del aeródromo
Temperatura: 15 °C
Rocío: 11 °C
Humedad_relativa: 77%
Presión: 1017 hPa
No se esperan cambios significativos en las próximas 2 horas
METAR del 27-10-2021 a las 06:00 UTC
Para mayor información visite www.meteochile.cl
METAR SCDA 270600Z 14004KT CAVOK 15/11 Q1016
Viento: dirección 140 grados, velocidad 4 nudos
Visibilidad: 10 km o más,
    sin nubes bajo los 5.000 pies o bajo del MSA (Mínimo de Seguridad del Aeródromo),
    sin cumulonimbus, y sin fenómenos de tiempo significativo en el aeródromo o alrededores
Temperatura: 15 °C
Rocío: 11 °C
Humedad_relativa: 77%
Presión: 1016 hPa
METAR del 27-10-2021 a las 06:00 UTC
Para mayor información visite www.meteochile.cl
METAR SCRM 270600Z 28015KT 9999 SCT012 M01/M01 Q0970 NOSIG
Viento: dirección 280 grados, velocidad 15 nudos
Visibilidad: 10 km o más
Nubes: Nubosidad parcial a 1200 pies sobre el nivel del aeródromo
Temperatura: -1 °C
Rocío: -1 °C
Humedad_relativa: 100%
Presión: 970 hPa
No se esperan cambios significativos en las próximas 2 horas